Time;durP1;ratioP1;P1;durP2;ratioP2;P2;SDS_P1;SDS_P2;PMS_P1;PMS_P2;Temp;Humidity;BMP_temperature;BMP_pressure;BME280_temperature;BME280_humidity;BME280_pressure;Samples;Min_cycle;Max_cycle;Signal;HPM_P1;HPM_P2
2023/06/01 00:01:54;;;;;;;5.20;4.18;;;18.70;74.20;;;;;;5043922;28;20032;-52
2023/06/01 00:04:40;;;;;;;7.22;3.55;;;18.50;74.70;;;;;;5042375;28;20026;-50
2023/06/01 00:07:29;;;;;;;6.00;3.55;;;18.40;75.60;;;;;;5040571;28;20041;-52
2023/06/01 00:10:15;;;;;;;6.75;3.63;;;18.50;74.90;;;;;;5044212;28;20057;-51
2023/06/01 00:13:01;;;;;;;5.82;3.65;;;18.50;74.90;;;;;;5044599;28;20101;-52
2023/06/01 00:15:47;;;;;;;5.75;3.90;;;18.60;74.80;;;;;;5041899;28;20032;-49
2023/06/01 00:18:33;;;;;;;6.15;4.15;;;18.60;75.10;;;;;;5043214;28;20116;-50
2023/06/01 00:21:19;;;;;;;4.47;3.50;;;18.60;74.70;;;;;;5045080;28;20025;-50
2023/06/01 00:24:06;;;;;;;8.15;4.00;;;18.50;74.80;;;;;;5040565;28;20053;-53
2023/06/01 00:26:52;;;;;;;4.15;3.25;;;18.50;74.90;;;;;;5041599;28;20180;-51
2023/06/01 00:29:38;;;;;;;4.75;3.20;;;18.60;75.30;;;;;;5043314;28;20083;-54
2023/06/01 00:32:24;;;;;;;6.10;3.40;;;18.50;75.30;;;;;;5041109;28;20025;-49
2023/06/01 00:35:10;;;;;;;5.50;3.85;;;18.40;75.70;;;;;;5041637;28;20018;-49
2023/06/01 00:37:56;;;;;;;7.47;3.80;;;18.30;75.70;;;;;;5045159;28;20103;-53
2023/06/01 00:40:49;;;;;;;5.63;4.05;;;18.20;76.20;;;;;;5042428;28;20051;-52
2023/06/01 00:43:35;;;;;;;4.88;3.80;;;18.30;76.20;;;;;;5044149;28;20578;-48
2023/06/01 00:46:22;;;;;;;7.07;3.90;;;18.20;76.00;;;;;;5044022;28;20040;-48
2023/06/01 00:49:07;;;;;;;7.00;3.67;;;18.10;76.50;;;;;;5041972;28;20052;-47
2023/06/01 00:51:54;;;;;;;5.90;3.63;;;17.90;77.00;;;;;;5046171;28;20013;-47
2023/06/01 00:54:40;;;;;;;6.05;3.88;;;17.70;77.20;;;;;;5046026;28;20024;-48
2023/06/01 00:57:27;;;;;;;6.93;3.85;;;17.50;77.90;;;;;;5041059;28;20013;-49
2023/06/01 01:00:13;;;;;;;4.43;3.55;;;17.40;78.40;;;;;;5043526;28;20036;-48
2023/06/01 01:03:07;;;;;;;4.63;3.67;;;17.30;78.40;;;;;;5044168;28;20028;-50
2023/06/01 01:06:11;;;;;;;7.43;3.53;;;17.30;78.30;;;;;;5042837;28;20076;-52
2023/06/01 01:09:12;;;;;;;7.68;3.75;;;17.20;79.00;;;;;;5043398;28;20022;-53
2023/06/01 01:12:03;;;;;;;6.85;3.60;;;17.00;78.80;;;;;;5043278;28;20068;-50
2023/06/01 01:14:57;;;;;;;6.18;3.92;;;16.80;79.60;;;;;;5039865;28;20056;-52
2023/06/01 01:17:47;;;;;;;5.07;3.38;;;16.90;79.80;;;;;;5040461;28;20662;-47
2023/06/01 01:20:40;;;;;;;6.43;3.58;;;17.00;79.70;;;;;;5042295;28;20072;-48
2023/06/01 01:23:36;;;;;;;6.07;3.92;;;16.90;79.90;;;;;;5042108;28;20018;-49
2023/06/01 01:26:22;;;;;;;4.88;3.53;;;17.00;79.70;;;;;;5042049;28;20025;-51
2023/06/01 01:29:13;;;;;;;6.15;3.65;;;17.00;80.00;;;;;;5040219;28;20108;-51
2023/06/01 01:32:03;;;;;;;5.47;3.60;;;17.00;79.90;;;;;;5043073;28;20025;-48
2023/06/01 01:34:50;;;;;;;5.70;3.53;;;17.20;79.80;;;;;;5043408;28;20493;-47
2023/06/01 01:37:36;;;;;;;5.75;3.35;;;17.10;79.80;;;;;;5042402;28;20026;-51
2023/06/01 01:40:22;;;;;;;5.28;3.67;;;17.10;80.00;;;;;;5042814;28;20026;-49
2023/06/01 01:43:08;;;;;;;4.45;3.22;;;17.10;80.10;;;;;;5041096;28;20022;-52
2023/06/01 01:46:11;;;;;;;5.63;3.65;;;17.00;80.40;;;;;;5044270;28;20135;-53
2023/06/01 01:49:02;;;;;;;6.82;3.72;;;17.00;80.70;;;;;;5043056;28;20021;-48
2023/06/01 01:51:57;;;;;;;5.95;3.25;;;17.00;81.10;;;;;;5040777;28;20029;-52
2023/06/01 01:54:46;;;;;;;6.22;4.18;;;17.00;81.40;;;;;;5038615;28;20104;-52
2023/06/01 01:57:34;;;;;;;5.00;3.65;;;16.90;81.80;;;;;;5040221;28;20030;-52
2023/06/01 02:00:20;;;;;;;5.60;3.75;;;16.90;81.90;;;;;;5042555;28;20028;-53
2023/06/01 02:03:16;;;;;;;5.03;3.42;;;16.80;82.10;;;;;;5039577;28;20033;-52
2023/06/01 02:06:02;;;;;;;6.78;3.65;;;16.80;82.30;;;;;;5042266;28;20017;-52
2023/06/01 02:08:48;;;;;;;5.95;3.90;;;16.90;82.50;;;;;;5040536;28;20033;-50
2023/06/01 02:11:35;;;;;;;7.03;3.80;;;16.80;83.10;;;;;;5041860;28;20056;-51
2023/06/01 02:14:21;;;;;;;6.10;3.75;;;16.90;83.70;;;;;;5042534;28;20029;-50
2023/06/01 02:17:07;;;;;;;6.35;3.70;;;16.70;84.40;;;;;;5038818;28;20100;-51
2023/06/01 02:19:53;;;;;;;4.78;3.28;;;16.60;84.70;;;;;;5040417;28;20022;-50
2023/06/01 02:22:39;;;;;;;6.03;3.90;;;16.60;85.10;;;;;;5042275;28;20166;-50
2023/06/01 02:25:25;;;;;;;8.50;3.90;;;16.50;85.80;;;;;;5039065;28;20033;-50
2023/06/01 02:28:11;;;;;;;10.15;3.78;;;16.50;85.90;;;;;;5039789;28;20026;-50
2023/06/01 02:30:57;;;;;;;5.70;3.80;;;16.50;86.00;;;;;;5042515;28;20036;-50
2023/06/01 02:33:44;;;;;;;5.45;3.90;;;16.50;86.40;;;;;;5041774;28;20091;-51
2023/06/01 02:36:31;;;;;;;5.07;4.57;;;16.50;86.50;;;;;;5041346;28;20107;-50
2023/06/01 02:39:17;;;;;;;6.60;4.75;;;16.40;87.00;;;;;;5043216;28;20101;-53
2023/06/01 02:42:03;;;;;;;5.78;3.88;;;16.30;87.60;;;;;;5041712;28;20082;-50
2023/06/01 02:44:49;;;;;;;9.05;4.65;;;16.20;88.10;;;;;;5042048;28;20021;-50
2023/06/01 02:47:35;;;;;;;7.38;4.38;;;16.10;89.20;;;;;;5040578;28;20022;-51
2023/06/01 02:50:21;;;;;;;8.15;4.53;;;16.00;89.80;;;;;;5039546;28;20441;-49
2023/06/01 02:53:07;;;;;;;8.07;5.00;;;16.00;90.20;;;;;;5038643;28;20017;-50
2023/06/01 02:55:53;;;;;;;10.18;5.30;;;15.90;90.10;;;;;;5042627;28;20021;-49
2023/06/01 02:58:39;;;;;;;5.80;4.53;;;16.00;90.40;;;;;;5041108;28;20584;-52
2023/06/01 03:01:26;;;;;;;9.00;4.88;;;15.90;90.40;;;;;;5039115;28;20048;-52
2023/06/01 03:04:13;;;;;;;7.82;5.13;;;16.00;90.80;;;;;;5039862;28;20034;-48
2023/06/01 03:07:01;;;;;;;7.18;5.10;;;15.90;90.60;;;;;;5040223;28;20060;-51
2023/06/01 03:09:46;;;;;;;8.85;5.10;;;16.00;91.00;;;;;;5038743;28;20398;-51
2023/06/01 03:12:32;;;;;;;5.72;4.53;;;16.00;90.70;;;;;;5040676;28;20058;-50
2023/06/01 03:15:19;;;;;;;9.15;5.60;;;15.90;91.00;;;;;;5042080;28;20488;-48
2023/06/01 03:18:11;;;;;;;6.32;4.88;;;15.90;91.10;;;;;;5037862;28;20036;-50
2023/06/01 03:20:57;;;;;;;7.22;5.47;;;15.80;91.20;;;;;;5039584;28;20036;-51
2023/06/01 03:23:43;;;;;;;9.20;5.10;;;15.80;91.50;;;;;;5042477;28;20025;-50
2023/06/01 03:26:29;;;;;;;7.03;5.40;;;15.80;91.50;;;;;;5039145;28;20175;-51
2023/06/01 03:29:15;;;;;;;10.80;6.78;;;15.70;91.90;;;;;;5041576;28;20026;-51
2023/06/01 03:32:02;;;;;;;9.20;5.85;;;15.70;92.30;;;;;;5041968;28;20025;-51
2023/06/01 03:34:48;;;;;;;9.93;6.15;;;15.50;92.60;;;;;;5041862;28;20037;-50
2023/06/01 03:37:34;;;;;;;11.50;7.47;;;15.50;93.00;;;;;;5040287;28;20056;-51
2023/06/01 03:40:20;;;;;;;8.43;5.95;;;15.50;93.30;;;;;;5042667;28;20109;-48
2023/06/01 03:43:06;;;;;;;11.73;7.32;;;15.30;93.90;;;;;;5042018;28;20032;-49
2023/06/01 03:45:52;;;;;;;11.18;7.35;;;15.10;94.70;;;;;;5043261;28;20502;-48
2023/06/01 03:48:38;;;;;;;12.07;7.28;;;15.10;94.60;;;;;;5039967;28;20080;-50
2023/06/01 03:51:24;;;;;;;11.18;6.93;;;15.20;94.60;;;;;;5037326;28;20022;-49
2023/06/01 03:54:12;;;;;;;10.68;6.50;;;15.20;94.50;;;;;;5038281;28;20014;-48
2023/06/01 03:56:58;;;;;;;10.98;6.80;;;15.30;94.60;;;;;;5040746;28;20026;-53
2023/06/01 03:59:44;;;;;;;12.73;7.45;;;15.40;94.40;;;;;;5036388;28;20388;-50
2023/06/01 04:02:30;;;;;;;10.95;6.72;;;15.50;94.10;;;;;;5038969;28;20528;-50
2023/06/01 04:05:17;;;;;;;9.75;7.03;;;15.60;94.10;;;;;;5040491;28;20120;-52
2023/06/01 04:08:03;;;;;;;10.40;6.65;;;15.70;93.90;;;;;;5040316;28;20048;-50
2023/06/01 04:10:49;;;;;;;11.90;6.85;;;15.60;93.80;;;;;;5038995;28;20036;-52
2023/06/01 04:13:35;;;;;;;9.68;6.57;;;15.60;93.70;;;;;;5039830;28;20414;-51
2023/06/01 04:16:20;;;;;;;15.35;7.20;;;15.60;94.20;;;;;;5041206;28;20044;-52
2023/06/01 04:19:07;;;;;;;9.07;6.45;;;15.60;94.20;;;;;;5041589;28;20021;-52
2023/06/01 04:21:52;;;;;;;11.90;7.18;;;15.60;94.10;;;;;;5043052;28;20025;-52
2023/06/01 04:24:38;;;;;;;10.23;7.25;;;15.60;94.20;;;;;;5044327;28;20060;-51
2023/06/01 04:27:26;;;;;;;9.10;7.05;;;15.70;94.30;;;;;;5040348;28;20025;-54
2023/06/01 04:30:13;;;;;;;11.52;7.18;;;15.70;94.00;;;;;;5042910;28;20022;-51
2023/06/01 04:32:59;;;;;;;12.93;7.65;;;15.60;94.80;;;;;;5044432;28;20108;-52
2023/06/01 04:35:45;;;;;;;10.57;7.28;;;15.50;94.90;;;;;;5041706;28;20017;-53
2023/06/01 04:38:32;;;;;;;13.38;8.55;;;15.40;95.50;;;;;;5041147;28;20018;-51
2023/06/01 04:41:19;;;;;;;12.63;8.60;;;15.20;95.60;;;;;;5043338;28;20175;-51
2023/06/01 04:44:06;;;;;;;12.05;9.00;;;15.10;95.80;;;;;;5040025;28;20119;-52
2023/06/01 04:46:53;;;;;;;16.10;9.48;;;15.00;96.60;;;;;;5044284;28;20028;-51
2023/06/01 04:49:41;;;;;;;17.15;9.63;;;14.90;96.90;;;;;;5041903;28;20045;-54
2023/06/01 04:52:27;;;;;;;14.05;10.40;;;14.80;97.40;;;;;;5041585;28;20025;-50
2023/06/01 04:55:13;;;;;;;17.52;10.90;;;14.70;97.50;;;;;;5041474;28;20490;-50
2023/06/01 04:57:59;;;;;;;14.35;9.27;;;14.60;97.90;;;;;;5042371;28;20486;-48
2023/06/01 05:00:46;;;;;;;15.70;9.68;;;14.60;98.10;;;;;;5037403;28;20033;-51
2023/06/01 05:03:32;;;;;;;16.40;10.52;;;14.70;98.10;;;;;;5041913;28;20033;-49
2023/06/01 05:06:20;;;;;;;17.50;11.23;;;14.70;98.20;;;;;;5042080;28;20162;-51
2023/06/01 05:09:06;;;;;;;14.07;10.95;;;14.60;98.50;;;;;;5038985;28;20470;-53
2023/06/01 05:11:52;;;;;;;15.10;11.45;;;14.60;98.80;;;;;;5042651;28;20022;-57
2023/06/01 05:14:40;;;;;;;17.27;11.90;;;14.60;99.30;;;;;;5044811;28;20453;-54
2023/06/01 05:17:26;;;;;;;24.33;15.75;;;14.60;98.90;;;;;;5038891;28;20104;-53
2023/06/01 05:20:12;;;;;;;22.58;16.35;;;14.30;99.30;;;;;;5041618;28;20057;-55
2023/06/01 05:22:58;;;;;;;25.88;16.98;;;14.10;99.90;;;;;;5040687;28;20055;-55
2023/06/01 05:25:44;;;;;;;28.60;17.10;;;14.00;99.90;;;;;;5061933;28;20128;-55
2023/06/01 05:28:31;;;;;;;23.60;17.13;;;14.00;99.90;;;;;;5040360;28;20029;-55
2023/06/01 05:31:17;;;;;;;23.27;16.90;;;14.10;99.90;;;;;;5042692;28;20018;-53
2023/06/01 05:34:03;;;;;;;28.17;19.33;;;14.10;99.90;;;;;;5044389;28;20013;-53
2023/06/01 05:36:49;;;;;;;28.05;19.05;;;14.20;99.90;;;;;;5041258;28;20022;-49
2023/06/01 05:39:36;;;;;;;32.05;21.83;;;14.10;99.80;;;;;;5041436;28;20029;-50
2023/06/01 05:42:21;;;;;;;31.45;21.40;;;13.70;99.90;;;;;;5043928;28;20570;-53
2023/06/01 05:45:09;;;;;;;31.67;21.67;;;13.70;99.90;;;;;;5058644;28;20078;-53
2023/06/01 05:47:55;;;;;;;39.28;27.13;;;13.80;99.90;;;;;;5042185;28;20075;-49
2023/06/01 05:50:41;;;;;;;36.92;27.00;;;13.70;99.90;;;;;;5042404;28;20037;-54
2023/06/01 05:53:28;;;;;;;41.42;27.90;;;13.60;99.90;;;;;;5038857;28;20568;-54
2023/06/01 05:56:14;;;;;;;41.97;29.08;;;13.60;99.90;;;;;;5040236;28;20394;-51
2023/06/01 05:59:00;;;;;;;43.00;28.67;;;13.60;99.90;;;;;;5042377;28;20037;-51
2023/06/01 06:01:46;;;;;;;41.47;27.58;;;13.70;99.90;;;;;;5059631;28;20036;-54
2023/06/01 06:04:32;;;;;;;40.17;27.33;;;13.80;99.90;;;;;;5040631;28;20060;-47
2023/06/01 06:07:17;;;;;;;41.55;29.02;;;13.90;99.90;;;;;;5041569;28;20553;-48
2023/06/01 06:10:04;;;;;;;41.83;28.60;;;14.10;99.90;;;;;;5041962;28;20025;-51
2023/06/01 06:12:50;;;;;;;39.25;27.33;;;14.30;99.90;;;;;;5059623;28;20017;-53
2023/06/01 06:15:36;;;;;;;48.30;30.55;;;14.30;99.90;;;;;;5042905;28;20082;-52
2023/06/01 06:18:22;;;;;;;37.17;28.70;;;14.10;99.90;;;;;;5033178;28;20026;-51
2023/06/01 06:21:08;;;;;;;43.00;29.73;;;13.90;99.90;;;;;;5011143;28;20041;-48
2023/06/01 06:23:58;;;;;;;37.15;28.65;;;14.00;99.90;;;;;;5013453;28;20454;-49
2023/06/01 06:26:44;;;;;;;33.25;25.13;;;14.10;99.90;;;;;;5021875;28;20422;-49
2023/06/01 06:29:30;;;;;;;32.70;23.95;;;14.00;99.90;;;;;;5031835;28;20686;-48
2023/06/01 06:32:16;;;;;;;36.95;24.33;;;13.80;99.90;;;;;;5032522;28;20486;-47
2023/06/01 06:35:02;;;;;;;34.95;24.77;;;13.70;99.90;;;;;;5032640;28;20057;-47
2023/06/01 06:37:48;;;;;;;46.38;31.23;;;13.70;99.90;;;;;;5033230;28;20064;-48
2023/06/01 06:40:34;;;;;;;42.70;31.75;;;13.70;99.90;;;;;;5032344;28;20411;-54
2023/06/01 06:43:20;;;;;;;44.88;31.83;;;13.80;99.90;;;;;;5033904;28;20036;-55
2023/06/01 06:46:07;;;;;;;43.47;31.90;;;13.90;99.90;;;;;;5031175;28;20387;-55
2023/06/01 06:48:53;;;;;;;47.97;31.83;;;13.80;99.90;;;;;;5051258;28;20029;-54
2023/06/01 06:51:39;;;;;;;46.67;31.55;;;13.90;99.90;;;;;;5052716;28;20029;-49
2023/06/01 06:54:25;;;;;;;51.08;33.15;;;13.90;99.90;;;;;;5050766;28;20083;-50
2023/06/01 06:57:12;;;;;;;49.30;33.17;;;13.90;99.90;;;;;;5052175;28;20429;-50
2023/06/01 06:59:58;;;;;;;49.42;35.70;;;13.80;99.90;;;;;;5051444;28;20072;-50
2023/06/01 07:02:44;;;;;;;49.85;34.58;;;14.00;99.70;;;;;;5052137;28;20553;-51
2023/06/01 07:05:30;;;;;;;52.90;36.40;;;14.00;99.40;;;;;;5052659;28;20033;-50
2023/06/01 07:08:16;;;;;;;51.80;38.60;;;14.10;99.40;;;;;;5051033;28;20032;-49
2023/06/01 07:11:03;;;;;;;56.83;37.38;;;14.20;99.20;;;;;;5052529;28;20037;-53
2023/06/01 07:13:50;;;;;;;52.28;38.10;;;14.20;99.20;;;;;;5051699;28;20090;-51
2023/06/01 07:16:36;;;;;;;48.47;36.10;;;14.20;98.80;;;;;;5049995;28;20025;-50
2023/06/01 07:19:22;;;;;;;51.05;36.47;;;14.30;98.30;;;;;;5052715;28;20040;-48
2023/06/01 07:22:08;;;;;;;50.10;35.90;;;14.40;98.00;;;;;;5035721;28;20445;-48
2023/06/01 07:24:54;;;;;;;53.45;38.40;;;14.60;98.00;;;;;;5031493;28;20039;-49
2023/06/01 07:27:43;;;;;;;54.22;37.33;;;14.60;98.00;;;;;;5033262;28;20477;-53
2023/06/01 07:30:29;;;;;;;53.00;37.78;;;14.90;97.90;;;;;;5045664;28;20128;-52
2023/06/01 07:33:15;;;;;;;54.40;37.65;;;14.90;97.40;;;;;;5029046;28;20029;-52
2023/06/01 07:36:01;;;;;;;50.08;39.00;;;15.00;97.60;;;;;;5031605;28;20026;-54
2023/06/01 07:38:47;;;;;;;54.22;39.83;;;15.00;97.40;;;;;;5029351;28;20053;-51
2023/06/01 07:41:33;;;;;;;45.67;33.80;;;15.10;97.40;;;;;;5034378;28;20026;-54
2023/06/01 07:44:22;;;;;;;45.92;36.25;;;15.30;95.90;;;;;;5031648;28;20048;-54
2023/06/01 07:47:09;;;;;;;45.72;35.17;;;15.40;94.90;;;;;;5030419;28;20033;-53
2023/06/01 07:49:55;;;;;;;44.50;34.40;;;15.40;95.50;;;;;;5032238;28;20553;-54
2023/06/01 07:52:41;;;;;;;45.47;34.58;;;15.60;94.90;;;;;;5037517;28;20088;-57
2023/06/01 07:55:27;;;;;;;44.03;34.72;;;15.50;94.30;;;;;;5046060;28;20064;-53
2023/06/01 07:58:13;;;;;;;44.72;33.85;;;15.50;94.40;;;;;;5038390;28;20108;-53
2023/06/01 08:00:59;;;;;;;39.10;31.52;;;15.50;94.70;;;;;;5033927;28;20107;-53
2023/06/01 08:03:45;;;;;;;36.55;31.80;;;15.60;94.80;;;;;;5035789;28;20034;-53
2023/06/01 08:06:35;;;;;;;42.80;33.00;;;15.80;93.90;;;;;;5037003;28;20033;-51
2023/06/01 08:09:23;;;;;;;35.10;27.60;;;15.90;94.20;;;;;;5031967;28;20224;-50
2023/06/01 08:12:11;;;;;;;35.60;28.40;;;15.90;93.10;;;;;;5022838;28;20102;-53
2023/06/01 08:14:57;;;;;;;35.25;28.75;;;16.00;92.90;;;;;;5035295;28;20431;-49
2023/06/01 08:17:43;;;;;;;33.13;26.40;;;16.10;93.00;;;;;;5039518;28;20037;-50
2023/06/01 08:20:29;;;;;;;34.15;28.42;;;16.10;92.90;;;;;;5043218;28;20053;-48
2023/06/01 08:23:22;;;;;;;32.80;26.67;;;16.00;92.90;;;;;;5053022;28;20037;-52
2023/06/01 08:26:08;;;;;;;31.30;26.58;;;16.10;92.70;;;;;;5040885;28;20124;-53
2023/06/01 08:28:54;;;;;;;32.08;27.02;;;16.10;92.90;;;;;;5041779;28;20033;-48
2023/06/01 08:31:40;;;;;;;29.35;25.35;;;16.30;91.50;;;;;;5043644;28;20541;-48
2023/06/01 08:34:26;;;;;;;32.53;24.92;;;16.30;91.40;;;;;;5036457;28;20034;-48
2023/06/01 08:37:13;;;;;;;32.42;25.92;;;16.40;91.50;;;;;;5035266;28;20026;-48
2023/06/01 08:39:59;;;;;;;31.45;27.13;;;16.50;91.50;;;;;;5028842;28;20034;-52
2023/06/01 08:42:45;;;;;;;31.77;26.55;;;16.50;92.10;;;;;;5031549;28;20037;-54
2023/06/01 08:45:32;;;;;;;30.77;26.08;;;16.60;92.00;;;;;;5034308;28;20069;-50
2023/06/01 08:48:19;;;;;;;32.80;26.20;;;16.80;91.70;;;;;;5035501;28;20490;-52
2023/06/01 08:51:05;;;;;;;35.20;26.73;;;16.70;91.40;;;;;;5038059;28;20048;-49
2023/06/01 08:53:52;;;;;;;36.17;29.77;;;16.60;91.50;;;;;;5040235;28;20110;-48
2023/06/01 08:56:42;;;;;;;35.10;28.95;;;16.60;91.80;;;;;;5038486;28;20048;-50
2023/06/01 08:59:30;;;;;;;40.42;32.17;;;16.60;92.70;;;;;;5035147;28;20037;-52
2023/06/01 09:02:16;;;;;;;41.53;34.40;;;16.90;92.30;;;;;;5029857;28;20029;-50
2023/06/01 09:05:02;;;;;;;39.15;34.45;;;16.90;93.00;;;;;;5038888;28;20021;-54
2023/06/01 09:07:49;;;;;;;40.35;33.00;;;16.90;93.10;;;;;;5029251;28;20025;-53
2023/06/01 09:10:35;;;;;;;39.42;33.42;;;16.90;93.10;;;;;;5029946;28;20030;-50
2023/06/01 09:13:38;;;;;;;42.30;33.92;;;16.80;92.80;;;;;;5030969;28;20037;-48
2023/06/01 09:16:37;;;;;;;37.70;33.55;;;16.70;93.10;;;;;;5028670;28;20112;-48
2023/06/01 09:19:22;;;;;;;41.58;34.38;;;16.70;93.70;;;;;;5032586;28;20502;-47
2023/06/01 09:22:11;;;;;;;44.25;35.63;;;16.70;93.70;;;;;;5030188;28;20037;-50
2023/06/01 09:25:00;;;;;;;38.60;32.22;;;16.70;93.80;;;;;;5031970;28;20021;-47
2023/06/01 09:27:49;;;;;;;39.03;30.90;;;16.90;93.40;;;;;;5028631;28;20497;-48
2023/06/01 09:30:42;;;;;;;39.72;30.90;;;16.90;93.30;;;;;;5030941;28;20060;-51
2023/06/01 09:33:28;;;;;;;36.88;31.17;;;17.00;93.30;;;;;;5029354;28;20029;-54
2023/06/01 09:36:24;;;;;;;42.17;32.22;;;17.20;93.40;;;;;;5038438;28;20021;-49
2023/06/01 09:39:14;;;;;;;37.15;28.88;;;17.00;93.80;;;;;;5048313;28;20500;-53
2023/06/01 09:42:01;;;;;;;35.90;28.70;;;17.00;93.70;;;;;;5040715;28;20032;-52
2023/06/01 09:44:47;;;;;;;38.72;29.45;;;17.10;93.70;;;;;;5041305;28;20052;-54
2023/06/01 09:47:33;;;;;;;42.25;32.10;;;17.10;93.90;;;;;;5042569;28;20033;-51
2023/06/01 09:50:36;;;;;;;38.55;30.48;;;17.50;93.50;;;;;;5041625;28;20036;-50
2023/06/01 09:53:22;;;;;;;41.70;29.48;;;17.30;93.20;;;;;;5044802;28;20134;-51
2023/06/01 09:56:08;;;;;;;40.47;29.40;;;17.00;93.80;;;;;;5043481;28;20110;-54
2023/06/01 09:58:58;;;;;;;33.85;27.92;;;16.90;93.80;;;;;;5041151;28;20040;-52
2023/06/01 10:01:52;;;;;;;36.08;29.95;;;16.90;93.70;;;;;;5042007;28;20029;-52
2023/06/01 10:04:40;;;;;;;37.47;29.15;;;16.90;94.00;;;;;;5041927;28;20034;-61
2023/06/01 10:07:33;;;;;;;38.50;30.35;;;16.80;94.40;;;;;;5043448;28;20036;-52
2023/06/01 10:10:19;;;;;;;35.63;28.60;;;16.70;94.50;;;;;;5038970;28;20033;-49
2023/06/01 10:13:06;;;;;;;41.08;30.92;;;16.60;94.80;;;;;;5035973;28;20025;-52
2023/06/01 10:15:55;;;;;;;36.95;30.48;;;16.60;95.00;;;;;;5036971;28;20497;-52
2023/06/01 10:18:41;;;;;;;37.22;28.85;;;16.60;95.10;;;;;;5037076;28;20517;-49
2023/06/01 10:21:29;;;;;;;41.03;30.55;;;16.60;95.10;;;;;;5039971;28;20032;-51
2023/06/01 10:24:17;;;;;;;40.38;31.30;;;16.70;95.00;;;;;;5044939;28;20029;-49
2023/06/01 10:27:23;;;;;;;37.97;30.45;;;16.90;95.20;;;;;;5041303;28;20033;-50
2023/06/01 10:30:10;;;;;;;34.58;27.48;;;16.90;94.80;;;;;;5043956;28;20493;-48
2023/06/01 10:32:56;;;;;;;31.02;25.45;;;17.00;94.90;;;;;;5040813;28;20115;-49
2023/06/01 10:35:41;;;;;;;34.42;25.38;;;17.20;94.40;;;;;;5038508;28;20565;-52
2023/06/01 10:38:27;;;;;;;32.10;25.45;;;17.30;93.60;;;;;;5039021;28;20552;-49
2023/06/01 10:41:32;;;;;;;32.88;24.65;;;17.40;93.50;;;;;;5043196;28;20402;-51
2023/06/01 10:44:40;;;;;;;30.05;23.50;;;17.40;93.30;;;;;;5042323;28;20025;-50
2023/06/01 10:47:35;;;;;;;28.20;23.85;;;17.60;93.50;;;;;;5041577;28;20115;-52
2023/06/01 10:50:21;;;;;;;33.25;25.92;;;17.80;92.90;;;;;;5041610;28;20730;-51
2023/06/01 10:53:27;;;;;;;30.95;22.30;;;17.80;92.80;;;;;;5039610;28;20034;-53
2023/06/01 10:56:24;;;;;;;25.50;21.20;;;17.80;92.80;;;;;;5044669;28;20036;-51
2023/06/01 10:59:11;;;;;;;29.58;21.88;;;18.10;92.70;;;;;;5046546;28;20033;-55
2023/06/01 11:02:04;;;;;;;26.20;20.50;;;18.40;92.00;;;;;;5043577;28;20026;-56
2023/06/01 11:04:50;;;;;;;28.90;21.73;;;18.50;91.90;;;;;;5035477;28;20091;-54
2023/06/01 11:07:39;;;;;;;27.65;22.80;;;18.80;91.50;;;;;;5036641;28;20045;-54
2023/06/01 11:10:50;;;;;;;28.27;21.92;;;18.60;91.60;;;;;;5036101;28;20041;-50
2023/06/01 11:13:37;;;;;;;29.98;22.02;;;18.50;91.90;;;;;;5044113;28;20059;-53
2023/06/01 11:16:26;;;;;;;26.55;20.95;;;18.50;92.10;;;;;;5034142;28;20021;-55
2023/06/01 11:19:24;;;;;;;26.67;20.25;;;18.60;91.60;;;;;;5042858;28;20033;-55
2023/06/01 11:22:12;;;;;;;25.38;22.52;;;18.80;91.50;;;;;;5036597;28;20039;-56
2023/06/01 11:24:58;;;;;;;30.35;21.15;;;18.90;91.50;;;;;;5040115;28;20064;-53
2023/06/01 11:27:45;;;;;;;22.52;17.13;;;19.10;91.20;;;;;;5048779;28;20029;-52
2023/06/01 11:30:31;;;;;;;22.83;19.15;;;19.00;91.10;;;;;;5043207;28;20053;-53
2023/06/01 11:33:18;;;;;;;20.65;16.77;;;19.20;91.00;;;;;;5047669;28;20032;-52
2023/06/01 11:36:05;;;;;;;21.73;16.27;;;19.30;90.20;;;;;;5041499;28;20515;-54
2023/06/01 11:38:57;;;;;;;18.88;15.95;;;19.30;90.00;;;;;;5039120;28;20075;-54
2023/06/01 11:41:44;;;;;;;20.90;16.23;;;19.40;90.10;;;;;;5044861;28;20020;-50
2023/06/01 11:44:30;;;;;;;21.80;18.63;;;19.60;88.80;;;;;;5038862;28;20060;-51
2023/06/01 11:47:16;;;;;;;23.13;17.77;;;19.70;89.50;;;;;;5040949;28;20421;-52
2023/06/01 11:50:02;;;;;;;17.90;15.95;;;19.60;88.80;;;;;;5045685;28;20040;-62
2023/06/01 11:52:48;;;;;;;16.90;14.30;;;19.60;88.40;;;;;;5042773;28;20033;-51
2023/06/01 11:55:34;;;;;;;20.27;16.23;;;19.50;88.20;;;;;;5043227;28;20025;-53
2023/06/01 11:58:26;;;;;;;20.48;17.63;;;19.40;89.20;;;;;;5040729;28;20032;-53
2023/06/01 12:01:12;;;;;;;21.45;17.60;;;19.60;90.00;;;;;;5041420;28;20397;-52
2023/06/01 12:03:58;;;;;;;20.65;17.85;;;19.90;89.70;;;;;;5044592;28;20036;-48
2023/06/01 12:06:45;;;;;;;20.65;17.42;;;20.00;89.40;;;;;;5036681;28;20037;-50
2023/06/01 12:09:32;;;;;;;21.95;17.75;;;20.00;90.20;;;;;;5042152;28;20041;-50
2023/06/01 12:12:18;;;;;;;21.27;18.65;;;20.20;89.50;;;;;;5043587;28;20031;-52
2023/06/01 12:15:06;;;;;;;21.75;17.38;;;20.00;89.10;;;;;;5044832;28;20060;-50
2023/06/01 12:17:54;;;;;;;24.67;18.10;;;19.70;89.40;;;;;;5051690;28;20021;-49
2023/06/01 12:20:42;;;;;;;21.75;16.50;;;19.70;90.00;;;;;;5032136;28;20044;-48
2023/06/01 12:23:28;;;;;;;22.38;17.38;;;19.60;89.40;;;;;;5046376;28;20116;-48
2023/06/01 12:26:14;;;;;;;20.90;17.85;;;20.00;88.90;;;;;;5054000;28;20055;-48
2023/06/01 12:29:00;;;;;;;23.80;17.33;;;20.20;89.00;;;;;;5052689;28;20111;-50
2023/06/01 12:31:54;;;;;;;21.80;18.00;;;20.30;88.70;;;;;;5047712;28;20021;-52
2023/06/01 12:34:47;;;;;;;18.95;16.75;;;20.40;88.80;;;;;;5052526;28;20024;-49
2023/06/01 12:37:33;;;;;;;17.67;15.57;;;20.70;88.90;;;;;;5051597;28;20067;-49
2023/06/01 12:40:22;;;;;;;17.55;15.20;;;20.60;87.80;;;;;;5040881;28;20067;-48
2023/06/01 12:43:19;;;;;;;19.42;15.10;;;20.70;87.60;;;;;;5040325;28;20030;-49
2023/06/01 12:46:05;;;;;;;16.67;14.20;;;20.80;87.10;;;;;;5025206;28;20025;-50
2023/06/01 12:49:16;;;;;;;15.80;13.95;;;21.00;86.00;;;;;;5032008;28;20413;-49
2023/06/01 12:52:02;;;;;;;14.77;13.32;;;21.00;85.80;;;;;;5032252;28;20134;-50
2023/06/01 12:54:50;;;;;;;19.52;12.57;;;21.10;86.30;;;;;;5041774;28;20025;-49
2023/06/01 12:57:40;;;;;;;14.48;12.68;;;20.90;86.50;;;;;;5032625;28;20061;-48
2023/06/01 13:00:26;;;;;;;15.40;13.88;;;21.20;85.90;;;;;;5014166;28;20060;-50
2023/06/01 13:03:14;;;;;;;19.17;17.08;;;21.10;86.30;;;;;;5014100;28;20534;-46
2023/06/01 13:06:00;;;;;;;15.68;14.15;;;21.00;86.80;;;;;;5013030;28;20061;-49
2023/06/01 13:08:46;;;;;;;16.48;13.95;;;21.10;87.00;;;;;;5031678;28;20091;-48
2023/06/01 13:11:33;;;;;;;16.98;14.95;;;21.30;86.20;;;;;;5046336;28;20037;-48
2023/06/01 13:14:19;;;;;;;16.13;14.25;;;21.10;86.30;;;;;;5035845;28;20028;-50
2023/06/01 13:17:05;;;;;;;20.50;15.80;;;21.00;85.80;;;;;;5027124;28;20041;-48
2023/06/01 13:19:52;;;;;;;16.35;14.43;;;20.70;87.40;;;;;;5045592;28;20050;-52
2023/06/01 13:22:38;;;;;;;20.45;14.68;;;20.90;86.90;;;;;;5031820;28;20033;-47
2023/06/01 13:25:24;;;;;;;17.90;14.70;;;21.10;85.60;;;;;;5053702;28;20125;-48
2023/06/01 13:28:11;;;;;;;16.17;13.77;;;21.00;85.10;;;;;;5043857;28;20071;-50
2023/06/01 13:30:57;;;;;;;18.55;13.25;;;21.10;84.40;;;;;;5038328;28;20566;-46
2023/06/01 13:33:43;;;;;;;18.35;13.63;;;21.30;83.20;;;;;;5043766;28;20034;-50
2023/06/01 13:36:30;;;;;;;16.50;13.00;;;21.50;83.20;;;;;;5041865;28;20037;-47
2023/06/01 13:39:16;;;;;;;17.00;13.38;;;21.40;83.00;;;;;;5045378;28;20037;-48
2023/06/01 13:42:02;;;;;;;19.65;13.52;;;21.60;83.10;;;;;;5033217;28;20029;-48
2023/06/01 13:44:48;;;;;;;15.93;13.65;;;21.60;82.50;;;;;;5031718;28;20026;-50
2023/06/01 13:47:34;;;;;;;17.55;13.10;;;21.40;81.20;;;;;;5051879;28;20121;-53
2023/06/01 13:50:20;;;;;;;18.63;14.75;;;21.30;82.00;;;;;;5048391;28;20064;-48
2023/06/01 13:53:06;;;;;;;19.45;16.65;;;21.50;81.40;;;;;;5051142;28;20025;-48
2023/06/01 13:55:52;;;;;;;25.58;15.07;;;21.40;81.70;;;;;;5051873;28;20052;-53
2023/06/01 13:58:38;;;;;;;21.85;16.15;;;21.70;81.20;;;;;;5042478;28;20029;-52
2023/06/01 14:01:24;;;;;;;21.45;17.60;;;21.60;81.10;;;;;;5051444;28;20029;-45
2023/06/01 14:04:10;;;;;;;22.02;17.77;;;21.50;81.80;;;;;;5032848;28;20132;-47
2023/06/01 14:06:56;;;;;;;21.80;16.52;;;21.60;81.30;;;;;;5051767;28;20040;-48
2023/06/01 14:09:42;;;;;;;21.73;16.85;;;21.50;81.30;;;;;;5052715;28;20428;-49
2023/06/01 14:12:28;;;;;;;23.63;16.20;;;21.50;81.40;;;;;;5045971;28;20040;-49
2023/06/01 14:15:14;;;;;;;20.13;17.08;;;21.70;79.70;;;;;;5032565;28;20030;-48
2023/06/01 14:18:00;;;;;;;19.58;15.23;;;21.80;79.10;;;;;;5032111;28;20116;-49